sensor_id;sensor_type;location;lat;lon;timestamp;P1;durP1;ratioP1;P2;durP2;ratioP2
39324;SDS011;25037;49.488;9.900;2023-02-28T00:00:35;6.57;;;3.90;;
39324;SDS011;25037;49.488;9.900;2023-02-28T00:03:03;5.13;;;3.65;;
39324;SDS011;25037;49.488;9.900;2023-02-28T00:05:30;6.03;;;3.45;;
39324;SDS011;25037;49.488;9.900;2023-02-28T00:07:56;5.50;;;3.70;;
39324;SDS011;25037;49.488;9.900;2023-02-28T00:10:24;5.90;;;3.03;;
39324;SDS011;25037;49.488;9.900;2023-02-28T00:12:53;6.70;;;3.80;;
39324;SDS011;25037;49.488;9.900;2023-02-28T00:15:23;8.20;;;3.60;;
39324;SDS011;25037;49.488;9.900;2023-02-28T00:17:50;5.38;;;3.17;;
39324;SDS011;25037;49.488;9.900;2023-02-28T00:20:17;6.45;;;3.72;;
39324;SDS011;25037;49.488;9.900;2023-02-28T00:22:46;6.57;;;3.55;;
39324;SDS011;25037;49.488;9.900;2023-02-28T00:25:16;5.65;;;3.70;;
39324;SDS011;25037;49.488;9.900;2023-02-28T00:27:48;6.78;;;3.70;;
39324;SDS011;25037;49.488;9.900;2023-02-28T00:30:17;5.82;;;3.70;;
39324;SDS011;25037;49.488;9.900;2023-02-28T00:32:48;11.38;;;4.20;;
39324;SDS011;25037;49.488;9.900;2023-02-28T00:35:15;5.75;;;3.80;;
39324;SDS011;25037;49.488;9.900;2023-02-28T00:37:42;8.73;;;4.15;;
39324;SDS011;25037;49.488;9.900;2023-02-28T00:40:09;6.68;;;4.25;;
39324;SDS011;25037;49.488;9.900;2023-02-28T00:42:37;7.07;;;4.00;;
39324;SDS011;25037;49.488;9.900;2023-02-28T00:45:05;6.50;;;3.75;;
39324;SDS011;25037;49.488;9.900;2023-02-28T00:47:32;6.18;;;4.30;;
39324;SDS011;25037;49.488;9.900;2023-02-28T00:49:59;8.45;;;4.03;;
39324;SDS011;25037;49.488;9.900;2023-02-28T00:52:26;6.30;;;4.22;;
39324;SDS011;25037;49.488;9.900;2023-02-28T00:54:53;6.53;;;3.75;;
39324;SDS011;25037;49.488;9.900;2023-02-28T00:57:20;5.22;;;3.92;;
39324;SDS011;25037;49.488;9.900;2023-02-28T00:59:46;6.78;;;4.45;;
39324;SDS011;25037;49.488;9.900;2023-02-28T01:02:13;7.15;;;4.15;;
39324;SDS011;25037;49.488;9.900;2023-02-28T01:04:40;7.18;;;3.95;;
39324;SDS011;25037;49.488;9.900;2023-02-28T01:07:07;5.85;;;3.88;;
39324;SDS011;25037;49.488;9.900;2023-02-28T01:09:33;6.60;;;4.05;;
39324;SDS011;25037;49.488;9.900;2023-02-28T01:12:00;7.45;;;4.38;;
39324;SDS011;25037;49.488;9.900;2023-02-28T01:14:27;6.53;;;4.20;;
39324;SDS011;25037;49.488;9.900;2023-02-28T01:16:53;6.32;;;4.20;;
39324;SDS011;25037;49.488;9.900;2023-02-28T01:19:20;7.53;;;4.10;;
39324;SDS011;25037;49.488;9.900;2023-02-28T01:21:46;7.22;;;4.10;;
39324;SDS011;25037;49.488;9.900;2023-02-28T01:24:13;6.80;;;4.13;;
39324;SDS011;25037;49.488;9.900;2023-02-28T01:26:40;6.75;;;4.07;;
39324;SDS011;25037;49.488;9.900;2023-02-28T01:29:06;6.22;;;4.05;;
39324;SDS011;25037;49.488;9.900;2023-02-28T01:31:33;8.00;;;4.13;;
39324;SDS011;25037;49.488;9.900;2023-02-28T01:34:00;8.07;;;3.97;;
39324;SDS011;25037;49.488;9.900;2023-02-28T01:36:27;6.57;;;4.25;;
39324;SDS011;25037;49.488;9.900;2023-02-28T01:38:54;6.47;;;4.00;;
39324;SDS011;25037;49.488;9.900;2023-02-28T01:41:22;4.65;;;3.30;;
39324;SDS011;25037;49.488;9.900;2023-02-28T01:46:33;6.53;;;4.05;;
39324;SDS011;25037;49.488;9.900;2023-02-28T01:49:03;6.53;;;4.28;;
39324;SDS011;25037;49.488;9.900;2023-02-28T01:51:37;6.80;;;4.10;;
39324;SDS011;25037;49.488;9.900;2023-02-28T01:54:09;7.18;;;3.63;;
39324;SDS011;25037;49.488;9.900;2023-02-28T01:56:41;7.65;;;4.95;;
39324;SDS011;25037;49.488;9.900;2023-02-28T01:59:13;5.82;;;3.92;;
39324;SDS011;25037;49.488;9.900;2023-02-28T02:01:45;6.47;;;3.65;;
39324;SDS011;25037;49.488;9.900;2023-02-28T02:04:12;7.30;;;4.10;;
39324;SDS011;25037;49.488;9.900;2023-02-28T02:06:42;6.68;;;4.18;;
39324;SDS011;25037;49.488;9.900;2023-02-28T02:09:12;8.20;;;4.45;;
39324;SDS011;25037;49.488;9.900;2023-02-28T02:11:42;5.65;;;3.63;;
39324;SDS011;25037;49.488;9.900;2023-02-28T02:16:52;5.95;;;3.90;;
39324;SDS011;25037;49.488;9.900;2023-02-28T02:39:41;6.75;;;3.90;;
39324;SDS011;25037;49.488;9.900;2023-02-28T02:42:44;6.22;;;4.22;;
39324;SDS011;25037;49.488;9.900;2023-02-28T02:45:16;7.10;;;4.53;;
39324;SDS011;25037;49.488;9.900;2023-02-28T02:47:45;6.43;;;4.10;;
39324;SDS011;25037;49.488;9.900;2023-02-28T02:50:14;6.53;;;4.03;;
39324;SDS011;25037;49.488;9.900;2023-02-28T02:53:11;6.45;;;4.53;;
39324;SDS011;25037;49.488;9.900;2023-02-28T02:55:41;7.15;;;4.55;;
39324;SDS011;25037;49.488;9.900;2023-02-28T02:58:12;7.28;;;4.88;;
39324;SDS011;25037;49.488;9.900;2023-02-28T03:00:46;7.97;;;4.72;;
39324;SDS011;25037;49.488;9.900;2023-02-28T03:03:16;7.15;;;4.55;;
39324;SDS011;25037;49.488;9.900;2023-02-28T03:05:48;7.43;;;4.63;;
39324;SDS011;25037;49.488;9.900;2023-02-28T03:08:16;6.53;;;4.35;;
39324;SDS011;25037;49.488;9.900;2023-02-28T03:10:44;8.98;;;4.28;;
39324;SDS011;25037;49.488;9.900;2023-02-28T03:18:54;7.10;;;4.40;;
39324;SDS011;25037;49.488;9.900;2023-02-28T03:21:52;8.00;;;4.32;;
39324;SDS011;25037;49.488;9.900;2023-02-28T03:24:31;8.98;;;5.20;;
39324;SDS011;25037;49.488;9.900;2023-02-28T03:30:03;7.47;;;4.80;;
39324;SDS011;25037;49.488;9.900;2023-02-28T03:32:43;7.25;;;4.47;;
39324;SDS011;25037;49.488;9.900;2023-02-28T03:35:22;9.07;;;5.00;;
39324;SDS011;25037;49.488;9.900;2023-02-28T03:38:00;6.53;;;4.90;;
39324;SDS011;25037;49.488;9.900;2023-02-28T03:40:33;7.63;;;4.93;;
39324;SDS011;25037;49.488;9.900;2023-02-28T03:43:07;7.55;;;4.57;;
39324;SDS011;25037;49.488;9.900;2023-02-28T03:45:38;8.65;;;5.10;;
39324;SDS011;25037;49.488;9.900;2023-02-28T03:48:08;8.75;;;4.88;;
39324;SDS011;25037;49.488;9.900;2023-02-28T03:50:57;7.22;;;4.45;;
39324;SDS011;25037;49.488;9.900;2023-02-28T03:53:30;8.55;;;4.82;;
39324;SDS011;25037;49.488;9.900;2023-02-28T03:58:51;6.55;;;4.10;;
39324;SDS011;25037;49.488;9.900;2023-02-28T04:01:35;7.35;;;4.95;;
39324;SDS011;25037;49.488;9.900;2023-02-28T04:04:09;8.77;;;5.40;;
39324;SDS011;25037;49.488;9.900;2023-02-28T04:06:37;9.55;;;5.32;;
39324;SDS011;25037;49.488;9.900;2023-02-28T04:09:05;8.55;;;5.13;;
39324;SDS011;25037;49.488;9.900;2023-02-28T04:11:51;7.15;;;4.93;;
39324;SDS011;25037;49.488;9.900;2023-02-28T04:14:18;7.93;;;4.28;;
39324;SDS011;25037;49.488;9.900;2023-02-28T04:16:45;7.95;;;4.72;;
39324;SDS011;25037;49.488;9.900;2023-02-28T04:19:13;7.00;;;4.63;;
39324;SDS011;25037;49.488;9.900;2023-02-28T04:21:42;8.27;;;4.72;;
39324;SDS011;25037;49.488;9.900;2023-02-28T04:24:12;7.53;;;5.30;;
39324;SDS011;25037;49.488;9.900;2023-02-28T04:26:41;7.70;;;5.03;;
39324;SDS011;25037;49.488;9.900;2023-02-28T04:29:10;10.52;;;5.43;;
39324;SDS011;25037;49.488;9.900;2023-02-28T04:31:38;8.60;;;5.38;;
39324;SDS011;25037;49.488;9.900;2023-02-28T04:34:06;8.30;;;4.80;;
39324;SDS011;25037;49.488;9.900;2023-02-28T04:36:33;9.75;;;5.68;;
39324;SDS011;25037;49.488;9.900;2023-02-28T04:38:59;7.75;;;4.97;;
39324;SDS011;25037;49.488;9.900;2023-02-28T04:41:26;7.30;;;4.80;;
39324;SDS011;25037;49.488;9.900;2023-02-28T04:43:57;7.40;;;4.88;;
39324;SDS011;25037;49.488;9.900;2023-02-28T04:46:24;9.50;;;5.07;;
39324;SDS011;25037;49.488;9.900;2023-02-28T04:48:50;7.47;;;5.68;;
39324;SDS011;25037;49.488;9.900;2023-02-28T04:51:17;9.80;;;5.65;;
39324;SDS011;25037;49.488;9.900;2023-02-28T04:53:45;7.50;;;5.13;;
39324;SDS011;25037;49.488;9.900;2023-02-28T04:56:13;10.75;;;5.85;;
39324;SDS011;25037;49.488;9.900;2023-02-28T04:58:42;9.25;;;5.50;;
39324;SDS011;25037;49.488;9.900;2023-02-28T05:03:47;11.30;;;5.88;;
39324;SDS011;25037;49.488;9.900;2023-02-28T05:06:15;11.38;;;5.25;;
39324;SDS011;25037;49.488;9.900;2023-02-28T05:08:42;8.50;;;4.50;;
39324;SDS011;25037;49.488;9.900;2023-02-28T05:11:13;10.27;;;5.32;;
39324;SDS011;25037;49.488;9.900;2023-02-28T05:13:45;8.90;;;4.93;;
39324;SDS011;25037;49.488;9.900;2023-02-28T05:16:13;9.32;;;5.43;;
39324;SDS011;25037;49.488;9.900;2023-02-28T05:18:40;8.18;;;5.30;;
39324;SDS011;25037;49.488;9.900;2023-02-28T05:21:17;8.05;;;5.63;;
39324;SDS011;25037;49.488;9.900;2023-02-28T05:23:50;8.25;;;4.57;;
39324;SDS011;25037;49.488;9.900;2023-02-28T05:26:18;7.78;;;5.30;;
39324;SDS011;25037;49.488;9.900;2023-02-28T05:28:45;11.35;;;6.53;;
39324;SDS011;25037;49.488;9.900;2023-02-28T05:31:12;10.80;;;6.60;;
39324;SDS011;25037;49.488;9.900;2023-02-28T05:33:40;11.82;;;6.63;;
39324;SDS011;25037;49.488;9.900;2023-02-28T05:36:07;9.88;;;6.03;;
39324;SDS011;25037;49.488;9.900;2023-02-28T05:38:33;12.55;;;5.70;;
39324;SDS011;25037;49.488;9.900;2023-02-28T05:41:07;9.05;;;5.43;;
39324;SDS011;25037;49.488;9.900;2023-02-28T05:43:35;9.00;;;5.60;;
39324;SDS011;25037;49.488;9.900;2023-02-28T05:46:04;9.93;;;6.13;;
39324;SDS011;25037;49.488;9.900;2023-02-28T05:48:32;8.52;;;5.70;;
39324;SDS011;25037;49.488;9.900;2023-02-28T05:51:00;8.02;;;5.50;;
39324;SDS011;25037;49.488;9.900;2023-02-28T05:53:27;9.20;;;5.70;;
39324;SDS011;25037;49.488;9.900;2023-02-28T05:55:55;8.18;;;5.47;;
39324;SDS011;25037;49.488;9.900;2023-02-28T05:58:21;8.52;;;5.38;;
39324;SDS011;25037;49.488;9.900;2023-02-28T06:00:48;7.05;;;4.85;;
39324;SDS011;25037;49.488;9.900;2023-02-28T06:03:15;10.63;;;6.03;;
39324;SDS011;25037;49.488;9.900;2023-02-28T06:05:42;6.82;;;4.82;;
39324;SDS011;25037;49.488;9.900;2023-02-28T06:08:08;9.20;;;5.15;;
39324;SDS011;25037;49.488;9.900;2023-02-28T06:10:35;7.32;;;5.32;;
39324;SDS011;25037;49.488;9.900;2023-02-28T06:13:02;7.18;;;5.47;;
39324;SDS011;25037;49.488;9.900;2023-02-28T06:15:30;10.35;;;6.32;;
39324;SDS011;25037;49.488;9.900;2023-02-28T06:17:56;11.02;;;7.10;;
39324;SDS011;25037;49.488;9.900;2023-02-28T06:20:24;11.55;;;7.45;;
39324;SDS011;25037;49.488;9.900;2023-02-28T06:22:52;12.43;;;8.10;;
39324;SDS011;25037;49.488;9.900;2023-02-28T06:25:20;11.77;;;7.53;;
39324;SDS011;25037;49.488;9.900;2023-02-28T06:27:47;11.48;;;7.97;;
39324;SDS011;25037;49.488;9.900;2023-02-28T06:30:14;13.05;;;7.50;;
39324;SDS011;25037;49.488;9.900;2023-02-28T06:32:41;12.63;;;6.85;;
39324;SDS011;25037;49.488;9.900;2023-02-28T06:35:08;11.07;;;6.53;;
39324;SDS011;25037;49.488;9.900;2023-02-28T06:37:34;10.90;;;6.32;;
39324;SDS011;25037;49.488;9.900;2023-02-28T06:40:02;9.82;;;6.22;;
39324;SDS011;25037;49.488;9.900;2023-02-28T06:42:29;9.75;;;5.57;;
39324;SDS011;25037;49.488;9.900;2023-02-28T06:44:57;15.23;;;6.57;;
39324;SDS011;25037;49.488;9.900;2023-02-28T06:47:24;9.93;;;5.53;;
39324;SDS011;25037;49.488;9.900;2023-02-28T06:49:50;8.82;;;4.82;;
39324;SDS011;25037;49.488;9.900;2023-02-28T06:52:17;9.35;;;5.28;;
39324;SDS011;25037;49.488;9.900;2023-02-28T06:54:44;7.28;;;4.75;;
39324;SDS011;25037;49.488;9.900;2023-02-28T06:57:11;8.50;;;5.07;;
39324;SDS011;25037;49.488;9.900;2023-02-28T06:59:37;9.10;;;4.82;;
39324;SDS011;25037;49.488;9.900;2023-02-28T07:02:04;6.53;;;4.97;;
39324;SDS011;25037;49.488;9.900;2023-02-28T07:04:32;7.80;;;4.93;;
39324;SDS011;25037;49.488;9.900;2023-02-28T07:06:59;8.52;;;5.57;;
39324;SDS011;25037;49.488;9.900;2023-02-28T07:09:26;8.55;;;5.47;;
39324;SDS011;25037;49.488;9.900;2023-02-28T07:11:55;9.00;;;5.47;;
39324;SDS011;25037;49.488;9.900;2023-02-28T07:14:22;10.48;;;6.22;;
39324;SDS011;25037;49.488;9.900;2023-02-28T07:16:49;9.48;;;5.43;;
39324;SDS011;25037;49.488;9.900;2023-02-28T07:19:16;9.02;;;5.90;;
39324;SDS011;25037;49.488;9.900;2023-02-28T07:21:43;10.35;;;6.50;;
39324;SDS011;25037;49.488;9.900;2023-02-28T07:24:09;11.35;;;5.90;;
39324;SDS011;25037;49.488;9.900;2023-02-28T07:26:36;10.18;;;5.95;;
39324;SDS011;25037;49.488;9.900;2023-02-28T07:29:03;9.93;;;6.40;;
39324;SDS011;25037;49.488;9.900;2023-02-28T07:31:30;10.15;;;6.60;;
39324;SDS011;25037;49.488;9.900;2023-02-28T07:33:57;11.10;;;6.90;;
39324;SDS011;25037;49.488;9.900;2023-02-28T07:36:24;11.25;;;6.40;;
39324;SDS011;25037;49.488;9.900;2023-02-28T07:38:51;11.55;;;6.68;;
39324;SDS011;25037;49.488;9.900;2023-02-28T07:41:18;10.18;;;6.28;;
39324;SDS011;25037;49.488;9.900;2023-02-28T07:43:47;11.88;;;5.80;;
39324;SDS011;25037;49.488;9.900;2023-02-28T07:46:14;9.90;;;6.50;;
39324;SDS011;25037;49.488;9.900;2023-02-28T07:48:43;9.30;;;6.25;;
39324;SDS011;25037;49.488;9.900;2023-02-28T07:51:10;9.60;;;5.57;;
39324;SDS011;25037;49.488;9.900;2023-02-28T07:53:37;8.45;;;6.03;;
39324;SDS011;25037;49.488;9.900;2023-02-28T07:56:03;8.10;;;6.30;;
39324;SDS011;25037;49.488;9.900;2023-02-28T07:58:31;11.00;;;6.00;;
39324;SDS011;25037;49.488;9.900;2023-02-28T08:00:57;9.65;;;6.60;;
39324;SDS011;25037;49.488;9.900;2023-02-28T08:03:35;9.02;;;6.45;;
39324;SDS011;25037;49.488;9.900;2023-02-28T08:06:03;14.15;;;7.82;;
39324;SDS011;25037;49.488;9.900;2023-02-28T08:08:30;10.20;;;6.88;;
39324;SDS011;25037;49.488;9.900;2023-02-28T08:10:58;10.25;;;6.53;;
39324;SDS011;25037;49.488;9.900;2023-02-28T08:13:27;10.00;;;6.35;;
39324;SDS011;25037;49.488;9.900;2023-02-28T08:15:55;12.73;;;6.78;;
39324;SDS011;25037;49.488;9.900;2023-02-28T08:18:22;11.63;;;6.75;;
39324;SDS011;25037;49.488;9.900;2023-02-28T08:20:49;8.88;;;6.10;;
39324;SDS011;25037;49.488;9.900;2023-02-28T08:23:16;10.98;;;6.60;;
39324;SDS011;25037;49.488;9.900;2023-02-28T08:25:42;10.43;;;7.35;;
39324;SDS011;25037;49.488;9.900;2023-02-28T08:28:09;11.02;;;7.50;;
39324;SDS011;25037;49.488;9.900;2023-02-28T08:30:36;9.57;;;7.22;;
39324;SDS011;25037;49.488;9.900;2023-02-28T08:33:03;9.65;;;7.05;;
39324;SDS011;25037;49.488;9.900;2023-02-28T08:35:29;10.43;;;7.38;;
39324;SDS011;25037;49.488;9.900;2023-02-28T08:37:56;11.32;;;7.25;;
39324;SDS011;25037;49.488;9.900;2023-02-28T08:40:22;11.60;;;7.40;;
39324;SDS011;25037;49.488;9.900;2023-02-28T08:42:50;8.73;;;7.22;;
39324;SDS011;25037;49.488;9.900;2023-02-28T08:45:17;10.68;;;7.25;;
39324;SDS011;25037;49.488;9.900;2023-02-28T08:47:43;8.98;;;6.70;;
39324;SDS011;25037;49.488;9.900;2023-02-28T08:50:10;10.75;;;7.00;;
39324;SDS011;25037;49.488;9.900;2023-02-28T08:52:37;12.15;;;7.28;;
39324;SDS011;25037;49.488;9.900;2023-02-28T08:55:04;9.77;;;7.00;;
39324;SDS011;25037;49.488;9.900;2023-02-28T08:57:31;9.75;;;6.82;;
39324;SDS011;25037;49.488;9.900;2023-02-28T08:59:59;9.57;;;7.03;;
39324;SDS011;25037;49.488;9.900;2023-02-28T09:02:25;8.77;;;6.90;;
39324;SDS011;25037;49.488;9.900;2023-02-28T09:04:52;10.60;;;7.57;;
39324;SDS011;25037;49.488;9.900;2023-02-28T09:07:19;10.38;;;7.32;;
39324;SDS011;25037;49.488;9.900;2023-02-28T09:09:45;12.27;;;7.97;;
39324;SDS011;25037;49.488;9.900;2023-02-28T09:12:21;11.00;;;7.88;;
39324;SDS011;25037;49.488;9.900;2023-02-28T09:14:49;9.93;;;8.10;;
39324;SDS011;25037;49.488;9.900;2023-02-28T09:17:16;10.48;;;7.20;;
39324;SDS011;25037;49.488;9.900;2023-02-28T09:19:43;11.32;;;7.30;;
39324;SDS011;25037;49.488;9.900;2023-02-28T09:22:10;11.98;;;7.72;;
39324;SDS011;25037;49.488;9.900;2023-02-28T09:24:37;10.52;;;7.63;;
39324;SDS011;25037;49.488;9.900;2023-02-28T09:27:04;11.68;;;7.50;;
39324;SDS011;25037;49.488;9.900;2023-02-28T09:29:32;12.52;;;8.27;;
39324;SDS011;25037;49.488;9.900;2023-02-28T09:32:00;11.40;;;7.53;;
39324;SDS011;25037;49.488;9.900;2023-02-28T09:34:27;11.27;;;8.15;;
39324;SDS011;25037;49.488;9.900;2023-02-28T09:36:57;10.52;;;7.68;;
39324;SDS011;25037;49.488;9.900;2023-02-28T09:39:23;11.23;;;8.50;;
39324;SDS011;25037;49.488;9.900;2023-02-28T09:41:52;9.82;;;7.57;;
39324;SDS011;25037;49.488;9.900;2023-02-28T09:44:29;11.02;;;8.15;;
39324;SDS011;25037;49.488;9.900;2023-02-28T09:49:43;10.98;;;8.23;;
39324;SDS011;25037;49.488;9.900;2023-02-28T09:52:20;12.32;;;8.45;;
39324;SDS011;25037;49.488;9.900;2023-02-28T09:54:52;11.68;;;8.10;;
39324;SDS011;25037;49.488;9.900;2023-02-28T10:03:04;11.52;;;8.45;;
39324;SDS011;25037;49.488;9.900;2023-02-28T10:05:43;11.88;;;8.43;;
39324;SDS011;25037;49.488;9.900;2023-02-28T10:08:25;11.20;;;8.52;;
39324;SDS011;25037;49.488;9.900;2023-02-28T10:10:58;12.70;;;8.95;;
39324;SDS011;25037;49.488;9.900;2023-02-28T10:16:16;12.45;;;9.05;;
39324;SDS011;25037;49.488;9.900;2023-02-28T10:18:51;9.77;;;7.30;;
39324;SDS011;25037;49.488;9.900;2023-02-28T10:21:34;11.48;;;8.73;;
39324;SDS011;25037;49.488;9.900;2023-02-28T10:24:11;10.50;;;8.10;;
39324;SDS011;25037;49.488;9.900;2023-02-28T10:26:49;11.02;;;8.13;;
39324;SDS011;25037;49.488;9.900;2023-02-28T10:29:22;12.30;;;8.70;;
39324;SDS011;25037;49.488;9.900;2023-02-28T10:31:48;11.57;;;8.70;;
39324;SDS011;25037;49.488;9.900;2023-02-28T10:34:15;11.85;;;9.07;;
39324;SDS011;25037;49.488;9.900;2023-02-28T10:36:41;13.23;;;8.95;;
39324;SDS011;25037;49.488;9.900;2023-02-28T10:42:00;10.85;;;8.52;;
39324;SDS011;25037;49.488;9.900;2023-02-28T10:44:26;10.48;;;8.05;;
39324;SDS011;25037;49.488;9.900;2023-02-28T10:46:53;12.43;;;9.60;;
39324;SDS011;25037;49.488;9.900;2023-02-28T10:49:21;11.30;;;8.75;;
39324;SDS011;25037;49.488;9.900;2023-02-28T10:51:56;11.85;;;8.15;;
39324;SDS011;25037;49.488;9.900;2023-02-28T10:54:29;11.45;;;9.05;;
39324;SDS011;25037;49.488;9.900;2023-02-28T10:57:17;10.75;;;8.20;;
39324;SDS011;25037;49.488;9.900;2023-02-28T10:59:49;11.90;;;8.70;;
39324;SDS011;25037;49.488;9.900;2023-02-28T11:02:34;10.73;;;8.60;;
39324;SDS011;25037;49.488;9.900;2023-02-28T11:05:21;11.00;;;8.45;;
39324;SDS011;25037;49.488;9.900;2023-02-28T11:07:51;10.70;;;8.60;;
39324;SDS011;25037;49.488;9.900;2023-02-28T11:10:39;12.82;;;9.70;;
39324;SDS011;25037;49.488;9.900;2023-02-28T11:13:16;12.25;;;9.07;;
39324;SDS011;25037;49.488;9.900;2023-02-28T11:15:55;10.85;;;8.35;;
39324;SDS011;25037;49.488;9.900;2023-02-28T11:18:35;12.30;;;9.35;;
39324;SDS011;25037;49.488;9.900;2023-02-28T11:21:26;13.38;;;9.27;;
39324;SDS011;25037;49.488;9.900;2023-02-28T11:24:00;12.30;;;8.73;;
39324;SDS011;25037;49.488;9.900;2023-02-28T11:26:35;11.13;;;8.68;;
39324;SDS011;25037;49.488;9.900;2023-02-28T11:29:12;14.30;;;8.98;;
39324;SDS011;25037;49.488;9.900;2023-02-28T11:31:42;12.13;;;8.98;;
39324;SDS011;25037;49.488;9.900;2023-02-28T11:34:23;12.38;;;8.82;;
39324;SDS011;25037;49.488;9.900;2023-02-28T11:36:54;12.65;;;9.07;;
39324;SDS011;25037;49.488;9.900;2023-02-28T11:39:23;12.65;;;9.20;;
39324;SDS011;25037;49.488;9.900;2023-02-28T11:45:03;10.65;;;8.25;;
39324;SDS011;25037;49.488;9.900;2023-02-28T11:56:37;10.98;;;8.57;;
39324;SDS011;25037;49.488;9.900;2023-02-28T12:05:10;13.60;;;8.95;;
39324;SDS011;25037;49.488;9.900;2023-02-28T12:07:53;11.45;;;8.82;;
39324;SDS011;25037;49.488;9.900;2023-02-28T12:13:01;11.68;;;8.80;;
39324;SDS011;25037;49.488;9.900;2023-02-28T12:26:55;10.95;;;8.43;;
39324;SDS011;25037;49.488;9.900;2023-02-28T12:29:31;12.13;;;8.70;;
39324;SDS011;25037;49.488;9.900;2023-02-28T12:34:44;11.50;;;8.43;;
39324;SDS011;25037;49.488;9.900;2023-02-28T12:37:25;10.90;;;8.60;;
39324;SDS011;25037;49.488;9.900;2023-02-28T12:40:01;11.70;;;8.63;;
39324;SDS011;25037;49.488;9.900;2023-02-28T12:42:33;10.88;;;8.25;;
39324;SDS011;25037;49.488;9.900;2023-02-28T12:45:12;12.38;;;8.93;;
39324;SDS011;25037;49.488;9.900;2023-02-28T12:47:46;11.50;;;8.77;;
39324;SDS011;25037;49.488;9.900;2023-02-28T12:50:18;11.73;;;8.32;;
39324;SDS011;25037;49.488;9.900;2023-02-28T12:52:48;9.25;;;7.97;;
39324;SDS011;25037;49.488;9.900;2023-02-28T12:58:07;11.00;;;8.93;;
39324;SDS011;25037;49.488;9.900;2023-02-28T13:03:36;11.13;;;7.97;;
39324;SDS011;25037;49.488;9.900;2023-02-28T13:11:40;10.30;;;8.23;;
39324;SDS011;25037;49.488;9.900;2023-02-28T13:16:53;10.90;;;7.88;;
39324;SDS011;25037;49.488;9.900;2023-02-28T13:19:21;11.70;;;8.45;;
39324;SDS011;25037;49.488;9.900;2023-02-28T13:21:50;9.82;;;8.55;;
39324;SDS011;25037;49.488;9.900;2023-02-28T13:25:00;9.93;;;7.97;;
39324;SDS011;25037;49.488;9.900;2023-02-28T13:30:00;13.07;;;9.00;;
39324;SDS011;25037;49.488;9.900;2023-02-28T13:32:47;10.63;;;8.48;;
39324;SDS011;25037;49.488;9.900;2023-02-28T13:36:10;12.15;;;8.75;;
39324;SDS011;25037;49.488;9.900;2023-02-28T13:38:50;10.60;;;7.85;;
39324;SDS011;25037;49.488;9.900;2023-02-28T13:49:25;10.80;;;7.93;;
39324;SDS011;25037;49.488;9.900;2023-02-28T14:00:18;9.68;;;7.78;;
39324;SDS011;25037;49.488;9.900;2023-02-28T14:08:57;9.63;;;7.30;;
39324;SDS011;25037;49.488;9.900;2023-02-28T14:11:43;10.52;;;7.88;;
39324;SDS011;25037;49.488;9.900;2023-02-28T14:14:53;10.45;;;7.82;;
39324;SDS011;25037;49.488;9.900;2023-02-28T14:17:01;11.25;;;7.50;;
39324;SDS011;25037;49.488;9.900;2023-02-28T14:19:31;10.50;;;7.72;;
39324;SDS011;25037;49.488;9.900;2023-02-28T14:32:34;10.95;;;8.18;;
39324;SDS011;25037;49.488;9.900;2023-02-28T14:35:26;11.05;;;7.43;;
39324;SDS011;25037;49.488;9.900;2023-02-28T14:38:04;11.52;;;8.15;;
39324;SDS011;25037;49.488;9.900;2023-02-28T14:40:34;12.98;;;7.95;;
39324;SDS011;25037;49.488;9.900;2023-02-28T14:43:03;11.50;;;8.60;;
39324;SDS011;25037;49.488;9.900;2023-02-28T14:45:32;12.15;;;9.18;;
39324;SDS011;25037;49.488;9.900;2023-02-28T14:48:01;11.98;;;8.48;;
39324;SDS011;25037;49.488;9.900;2023-02-28T14:50:35;10.93;;;7.93;;
39324;SDS011;25037;49.488;9.900;2023-02-28T14:53:03;12.13;;;8.52;;
39324;SDS011;25037;49.488;9.900;2023-02-28T14:55:34;12.95;;;9.10;;
39324;SDS011;25037;49.488;9.900;2023-02-28T14:58:02;10.82;;;8.18;;
39324;SDS011;25037;49.488;9.900;2023-02-28T15:00:33;12.50;;;8.48;;
39324;SDS011;25037;49.488;9.900;2023-02-28T15:06:15;10.95;;;8.45;;
39324;SDS011;25037;49.488;9.900;2023-02-28T15:08:44;12.43;;;8.05;;
39324;SDS011;25037;49.488;9.900;2023-02-28T15:11:13;11.45;;;9.00;;
39324;SDS011;25037;49.488;9.900;2023-02-28T15:13:54;11.38;;;8.70;;
39324;SDS011;25037;49.488;9.900;2023-02-28T15:19:07;11.05;;;8.52;;
39324;SDS011;25037;49.488;9.900;2023-02-28T15:21:42;15.45;;;9.15;;
39324;SDS011;25037;49.488;9.900;2023-02-28T15:24:13;10.68;;;7.63;;
39324;SDS011;25037;49.488;9.900;2023-02-28T15:27:04;10.35;;;7.80;;
39324;SDS011;25037;49.488;9.900;2023-02-28T15:29:45;10.80;;;8.18;;
39324;SDS011;25037;49.488;9.900;2023-02-28T15:32:21;11.98;;;8.13;;
39324;SDS011;25037;49.488;9.900;2023-02-28T15:34:49;10.80;;;9.00;;
39324;SDS011;25037;49.488;9.900;2023-02-28T15:40:07;10.23;;;8.15;;
39324;SDS011;25037;49.488;9.900;2023-02-28T15:42:39;16.08;;;8.63;;
39324;SDS011;25037;49.488;9.900;2023-02-28T15:45:25;13.35;;;8.23;;
39324;SDS011;25037;49.488;9.900;2023-02-28T15:47:57;12.35;;;8.48;;
39324;SDS011;25037;49.488;9.900;2023-02-28T15:50:33;12.20;;;8.57;;
39324;SDS011;25037;49.488;9.900;2023-02-28T15:53:00;13.75;;;9.05;;
39324;SDS011;25037;49.488;9.900;2023-02-28T15:55:29;10.80;;;8.57;;
39324;SDS011;25037;49.488;9.900;2023-02-28T15:57:57;12.20;;;9.02;;
39324;SDS011;25037;49.488;9.900;2023-02-28T16:00:28;11.50;;;9.13;;
39324;SDS011;25037;49.488;9.900;2023-02-28T16:02:55;15.07;;;9.55;;
39324;SDS011;25037;49.488;9.900;2023-02-28T16:05:24;15.52;;;9.52;;
39324;SDS011;25037;49.488;9.900;2023-02-28T16:07:55;12.32;;;9.15;;
39324;SDS011;25037;49.488;9.900;2023-02-28T16:10:23;14.70;;;8.80;;
39324;SDS011;25037;49.488;9.900;2023-02-28T16:12:53;10.52;;;8.27;;
39324;SDS011;25037;49.488;9.900;2023-02-28T16:15:22;12.70;;;8.88;;
39324;SDS011;25037;49.488;9.900;2023-02-28T16:17:54;11.52;;;7.85;;
39324;SDS011;25037;49.488;9.900;2023-02-28T16:20:29;10.68;;;8.07;;
39324;SDS011;25037;49.488;9.900;2023-02-28T16:22:56;12.40;;;8.63;;
39324;SDS011;25037;49.488;9.900;2023-02-28T16:25:29;12.55;;;8.25;;
39324;SDS011;25037;49.488;9.900;2023-02-28T16:28:02;10.65;;;7.70;;
39324;SDS011;25037;49.488;9.900;2023-02-28T16:30:29;13.40;;;8.40;;
39324;SDS011;25037;49.488;9.900;2023-02-28T16:32:59;13.23;;;8.55;;
39324;SDS011;25037;49.488;9.900;2023-02-28T16:35:26;11.95;;;8.27;;
39324;SDS011;25037;49.488;9.900;2023-02-28T16:37:53;12.07;;;8.60;;
39324;SDS011;25037;49.488;9.900;2023-02-28T16:40:23;10.63;;;8.32;;
39324;SDS011;25037;49.488;9.900;2023-02-28T16:42:52;11.13;;;8.70;;
39324;SDS011;25037;49.488;9.900;2023-02-28T16:45:24;11.13;;;8.10;;
39324;SDS011;25037;49.488;9.900;2023-02-28T16:47:52;12.18;;;9.27;;
39324;SDS011;25037;49.488;9.900;2023-02-28T16:50:21;11.13;;;8.50;;
39324;SDS011;25037;49.488;9.900;2023-02-28T16:52:49;13.75;;;8.90;;
39324;SDS011;25037;49.488;9.900;2023-02-28T16:55:18;12.50;;;9.10;;
39324;SDS011;25037;49.488;9.900;2023-02-28T16:57:47;14.30;;;9.68;;
39324;SDS011;25037;49.488;9.900;2023-02-28T17:00:18;17.13;;;10.27;;
39324;SDS011;25037;49.488;9.900;2023-02-28T17:02:45;13.93;;;9.63;;
39324;SDS011;25037;49.488;9.900;2023-02-28T17:05:12;14.65;;;10.07;;
39324;SDS011;25037;49.488;9.900;2023-02-28T17:07:39;14.45;;;9.10;;
39324;SDS011;25037;49.488;9.900;2023-02-28T17:10:11;13.07;;;8.38;;
39324;SDS011;25037;49.488;9.900;2023-02-28T17:12:42;15.35;;;9.15;;
39324;SDS011;25037;49.488;9.900;2023-02-28T17:15:10;14.23;;;8.65;;
39324;SDS011;25037;49.488;9.900;2023-02-28T17:17:41;10.48;;;7.88;;
39324;SDS011;25037;49.488;9.900;2023-02-28T17:20:11;13.10;;;9.15;;
39324;SDS011;25037;49.488;9.900;2023-02-28T17:22:42;15.27;;;8.35;;
39324;SDS011;25037;49.488;9.900;2023-02-28T17:25:09;15.50;;;8.23;;
39324;SDS011;25037;49.488;9.900;2023-02-28T17:27:36;10.43;;;7.93;;